Time;durP1;ratioP1;P1;durP2;ratioP2;P2;SDS_P1;SDS_P2;PMS_P1;PMS_P2;Temp;Humidity;BMP_temperature;BMP_pressure;BME280_temperature;BME280_humidity;BME280_pressure;Samples;Min_cycle;Max_cycle;Signal;HPM_P1;HPM_P2
2022/03/02 00:02:23;;;;;;;;;;;5.80;76.30;;;;;;5037914;28;19909;-64
2022/03/02 00:04:48;;;;;;;;;;;5.70;76.60;;;;;;5055160;28;19924;-68
2022/03/02 00:07:14;;;;;;;;;;;5.70;77.10;;;;;;5055827;28;20274;-66
2022/03/02 00:09:39;;;;;;;;;;;5.60;77.40;;;;;;5038384;28;19966;-69
2022/03/02 00:12:05;;;;;;;;;;;5.50;77.70;;;;;;5038314;28;20282;-64
2022/03/02 00:14:31;;;;;;;;;;;5.50;77.90;;;;;;5021977;28;19909;-65
2022/03/02 00:16:57;;;;;;;;;;;5.40;78.30;;;;;;5038120;28;20383;-66
2022/03/02 00:19:23;;;;;;;;;;;5.40;78.70;;;;;;5055030;28;19954;-66
2022/03/02 00:21:48;;;;;;;;;;;5.40;79.50;;;;;;5056062;28;19908;-71
2022/03/02 00:24:14;;;;;;;;;;;5.20;80.00;;;;;;5036944;28;19925;-66
2022/03/02 00:26:40;;;;;;;;;;;5.30;80.70;;;;;;5037544;28;20336;-70
2022/03/02 00:29:05;;;;;;;;;;;5.30;81.10;;;;;;5037692;28;19959;-68
2022/03/02 00:31:31;;;;;;;;;;;5.30;81.20;;;;;;5055587;28;19954;-69
2022/03/02 00:33:57;;;;;;;;;;;5.20;81.60;;;;;;5037744;28;19915;-65
2022/03/02 00:36:22;;;;;;;;;;;5.20;82.30;;;;;;5037112;28;19909;-67
2022/03/02 00:38:48;;;;;;;;;;;5.10;82.70;;;;;;5037646;28;20266;-66
2022/03/02 00:41:14;;;;;;;;;;;5.10;83.00;;;;;;5054745;28;19909;-67
2022/03/02 00:43:39;;;;;;;;;;;4.90;83.30;;;;;;5055592;28;20312;-65
2022/03/02 00:46:05;;;;;;;;;;;5.00;82.90;;;;;;5037204;28;19916;-68
2022/03/02 00:48:30;;;;;;;;;;;5.10;82.80;;;;;;5055069;28;19916;-65
2022/03/02 00:50:56;;;;;;;;;;;5.00;82.50;;;;;;5037995;28;19916;-67
2022/03/02 00:53:21;;;;;;;;;;;4.90;82.80;;;;;;5054788;28;20377;-66
2022/03/02 00:55:47;;;;;;;;;;;4.90;83.20;;;;;;5054996;28;19913;-67
2022/03/02 00:58:12;;;;;;;;;;;4.90;83.40;;;;;;5054700;28;19952;-65
2022/03/02 01:00:38;;;;;;;;;;;4.90;83.70;;;;;;5055450;28;20362;-69
2022/03/02 01:03:04;;;;;;;;;;;4.90;84.00;;;;;;5037277;28;19912;-65
2022/03/02 01:05:29;;;;;;;;;;;4.80;84.50;;;;;;5036566;28;19921;-65
2022/03/02 01:07:55;;;;;;;;;;;4.70;85.10;;;;;;5056513;28;19909;-67
2022/03/02 01:10:20;;;;;;;;;;;4.60;85.20;;;;;;5056472;28;19908;-69
2022/03/02 01:12:46;;;;;;;;;;;4.60;85.50;;;;;;5054670;28;19909;-65
2022/03/02 01:15:13;;;;;;;;;;;4.60;85.70;;;;;;5053949;28;19909;-65
2022/03/02 01:17:39;;;;;;;;;;;4.50;85.90;;;;;;5054613;28;19909;-67
2022/03/02 01:20:05;;;;;;;;;;;4.50;86.30;;;;;;5036665;28;19939;-67
2022/03/02 01:22:31;;;;;;;;;;;4.50;86.30;;;;;;5035993;28;19913;-66
2022/03/02 01:24:56;;;;;;;;;;;4.60;86.80;;;;;;5054667;28;20035;-67
2022/03/02 01:27:22;;;;;;;;;;;4.60;86.30;;;;;;5036496;28;19962;-73
2022/03/02 01:29:48;;;;;;;;;;;4.50;86.20;;;;;;5055136;28;19912;-64
2022/03/02 01:32:13;;;;;;;;;;;4.40;86.50;;;;;;5054376;28;19964;-67
2022/03/02 01:34:39;;;;;;;;;;;4.40;86.70;;;;;;5054529;28;20011;-65
2022/03/02 01:37:04;;;;;;;;;;;4.50;86.70;;;;;;5036536;28;19920;-68
2022/03/02 01:39:30;;;;;;;;;;;4.60;86.60;;;;;;5035942;28;20083;-67
2022/03/02 01:41:56;;;;;;;;;;;4.50;86.70;;;;;;5054248;28;20000;-69
2022/03/02 01:44:21;;;;;;;;;;;4.60;87.10;;;;;;5035369;28;19917;-66
2022/03/02 01:46:47;;;;;;;;;;;4.50;86.80;;;;;;5036621;28;19915;-67
2022/03/02 01:49:12;;;;;;;;;;;4.50;87.60;;;;;;5035731;28;19975;-65
2022/03/02 01:51:38;;;;;;;;;;;4.50;87.90;;;;;;5054007;28;19909;-67
2022/03/02 01:54:04;;;;;;;;;;;4.40;88.10;;;;;;5054366;28;19913;-65
2022/03/02 01:56:30;;;;;;;;;;;4.30;88.50;;;;;;5053527;28;19917;-64
2022/03/02 01:58:55;;;;;;;;;;;4.20;88.60;;;;;;5038077;28;19916;-65
2022/03/02 02:01:21;;;;;;;;;;;4.20;88.90;;;;;;5037733;28;19909;-71
2022/03/02 02:03:47;;;;;;;;;;;4.20;88.90;;;;;;5057502;28;19908;-66
2022/03/02 02:06:13;;;;;;;;;;;4.20;89.10;;;;;;5057348;28;19920;-68
2022/03/02 02:08:39;;;;;;;;;;;4.20;89.10;;;;;;5056119;28;20433;-65
2022/03/02 02:11:04;;;;;;;;;;;4.20;89.30;;;;;;5037049;28;19960;-66
2022/03/02 02:13:32;;;;;;;;;;;4.20;89.70;;;;;;5036744;28;19963;-66
2022/03/02 02:15:57;;;;;;;;;;;4.10;89.90;;;;;;5054430;28;20350;-65
2022/03/02 02:18:23;;;;;;;;;;;4.20;90.00;;;;;;5052830;28;20000;-66
2022/03/02 02:20:48;;;;;;;;;;;4.20;90.10;;;;;;5035488;28;19916;-67
2022/03/02 02:23:14;;;;;;;;;;;4.20;90.00;;;;;;5041615;28;19921;-65
2022/03/02 02:25:40;;;;;;;;;;;4.20;89.60;;;;;;5073350;28;19924;-65
2022/03/02 02:28:07;;;;;;;;;;;4.20;89.60;;;;;;5054759;28;19999;-65
2022/03/02 02:30:33;;;;;;;;;;;4.20;90.00;;;;;;5054352;28;19916;-64
2022/03/02 02:32:58;;;;;;;;;;;4.20;90.00;;;;;;5073379;28;19912;-68
2022/03/02 02:35:25;;;;;;;;;;;4.10;89.60;;;;;;5072840;28;19912;-65
2022/03/02 02:37:50;;;;;;;;;;;4.10;89.50;;;;;;5073387;28;20263;-65
2022/03/02 02:40:17;;;;;;;;;;;4.20;88.90;;;;;;5072691;28;19962;-65
2022/03/02 02:42:45;;;;;;;;;;;4.20;89.30;;;;;;5073342;28;19908;-65
2022/03/02 02:45:14;;;;;;;;;;;4.20;89.50;;;;;;5055045;28;19970;-65
2022/03/02 02:47:40;;;;;;;;;;;4.20;89.60;;;;;;5054341;28;19940;-66
2022/03/02 02:50:19;;;;;;;;;;;4.20;89.70;;;;;;5072849;28;19908;-65
2022/03/02 02:52:45;;;;;;;;;;;4.20;90.00;;;;;;5054649;28;19912;-65
2022/03/02 02:55:12;;;;;;;;;;;4.20;90.00;;;;;;5072430;28;20007;-66
2022/03/02 02:57:38;;;;;;;;;;;4.00;90.10;;;;;;5072377;28;19908;-67
2022/03/02 03:00:05;;;;;;;;;;;4.00;90.20;;;;;;5072760;28;19914;-65
2022/03/02 03:02:31;;;;;;;;;;;4.10;90.40;;;;;;5072301;28;19916;-65
2022/03/02 03:04:56;;;;;;;;;;;4.10;90.20;;;;;;5074895;28;19917;-65
2022/03/02 03:07:22;;;;;;;;;;;4.10;90.30;;;;;;5053976;28;19909;-69
2022/03/02 03:09:47;;;;;;;;;;;4.10;90.30;;;;;;5072388;28;19919;-68
2022/03/02 03:12:13;;;;;;;;;;;4.00;90.50;;;;;;5054725;28;20062;-65
2022/03/02 03:14:38;;;;;;;;;;;4.00;90.70;;;;;;5072172;28;19988;-71
2022/03/02 03:17:04;;;;;;;;;;;3.90;91.00;;;;;;5054714;28;19939;-65
2022/03/02 03:19:29;;;;;;;;;;;3.90;91.10;;;;;;5053997;28;19979;-66
2022/03/02 03:21:55;;;;;;;;;;;3.90;91.20;;;;;;5054676;28;19909;-66
2022/03/02 03:24:21;;;;;;;;;;;4.00;91.50;;;;;;5055702;28;19948;-64
2022/03/02 03:26:47;;;;;;;;;;;4.00;91.00;;;;;;5053086;28;19909;-66
2022/03/02 03:29:12;;;;;;;;;;;4.00;91.10;;;;;;5052422;28;20430;-66
2022/03/02 03:31:38;;;;;;;;;;;4.10;90.90;;;;;;5052196;28;19920;-65
2022/03/02 03:34:03;;;;;;;;;;;4.10;91.00;;;;;;5034982;28;20346;-71
2022/03/02 03:36:29;;;;;;;;;;;4.10;91.10;;;;;;5035509;28;19944;-67
2022/03/02 03:38:54;;;;;;;;;;;4.10;91.10;;;;;;5054654;28;20255;-65
2022/03/02 03:41:20;;;;;;;;;;;4.10;91.10;;;;;;5037745;28;20353;-64
2022/03/02 03:43:45;;;;;;;;;;;4.10;91.40;;;;;;5056034;28;19909;-66
2022/03/02 03:46:11;;;;;;;;;;;4.10;91.70;;;;;;5056013;28;19920;-67
2022/03/02 03:48:36;;;;;;;;;;;4.20;91.70;;;;;;5055478;28;19934;-66
2022/03/02 03:51:02;;;;;;;;;;;4.10;91.70;;;;;;5055887;28;19998;-67
2022/03/02 03:53:27;;;;;;;;;;;4.10;91.60;;;;;;5055649;28;19913;-67
2022/03/02 03:55:53;;;;;;;;;;;4.10;91.60;;;;;;5055601;28;20004;-66
2022/03/02 03:58:19;;;;;;;;;;;4.10;91.80;;;;;;5037709;28;19945;-67
2022/03/02 04:00:44;;;;;;;;;;;4.10;91.90;;;;;;5038119;28;19948;-64
2022/03/02 04:03:11;;;;;;;;;;;4.00;92.00;;;;;;5055745;28;19912;-65
2022/03/02 04:05:36;;;;;;;;;;;4.20;91.90;;;;;;5054054;28;19916;-66
2022/03/02 04:08:04;;;;;;;;;;;4.10;91.90;;;;;;5037704;28;19909;-65
2022/03/02 04:10:30;;;;;;;;;;;4.10;92.00;;;;;;5036496;28;19916;-66
2022/03/02 04:12:55;;;;;;;;;;;4.10;92.20;;;;;;5055165;28;19909;-66
2022/03/02 04:15:22;;;;;;;;;;;3.70;92.80;;;;;;5055046;28;20259;-66
2022/03/02 04:17:48;;;;;;;;;;;3.70;93.10;;;;;;5055291;28;20306;-66
2022/03/02 04:20:13;;;;;;;;;;;3.90;93.00;;;;;;5056729;28;20008;-71
2022/03/02 04:22:39;;;;;;;;;;;4.00;92.90;;;;;;5058099;28;19957;-67
2022/03/02 04:25:05;;;;;;;;;;;4.00;92.70;;;;;;5057828;28;20066;-65
2022/03/02 04:27:30;;;;;;;;;;;4.00;92.90;;;;;;5074475;28;19965;-65
2022/03/02 04:29:56;;;;;;;;;;;4.10;92.60;;;;;;5075220;28;20429;-65
2022/03/02 04:32:21;;;;;;;;;;;4.10;92.50;;;;;;5074480;28;19915;-69
2022/03/02 04:34:47;;;;;;;;;;;4.10;92.40;;;;;;5075101;28;19909;-65
2022/03/02 04:37:12;;;;;;;;;;;4.10;92.50;;;;;;5056781;28;19950;-65
2022/03/02 04:39:38;;;;;;;;;;;4.00;92.60;;;;;;5075211;28;19909;-66
2022/03/02 04:42:04;;;;;;;;;;;4.00;92.70;;;;;;5040876;28;20023;-65
2022/03/02 04:44:29;;;;;;;;;;;3.90;92.80;;;;;;5074461;28;19939;-65
2022/03/02 04:46:55;;;;;;;;;;;3.90;92.70;;;;;;5075057;28;20309;-65
2022/03/02 04:49:20;;;;;;;;;;;3.90;92.80;;;;;;5074811;28;19919;-65
2022/03/02 04:51:46;;;;;;;;;;;3.90;92.70;;;;;;5074261;28;19915;-67
2022/03/02 04:56:57;;;;;;;;;;;4.00;92.10;;;;;;5076312;28;19916;-66
2022/03/02 04:59:23;;;;;;;;;;;4.10;91.70;;;;;;5077960;28;19908;-69
2022/03/02 05:01:48;;;;;;;;;;;4.00;91.90;;;;;;5076445;28;19961;-67
2022/03/02 05:04:13;;;;;;;;;;;4.00;91.80;;;;;;5077257;28;19916;-71
2022/03/02 05:06:39;;;;;;;;;;;4.10;91.60;;;;;;5076380;28;19908;-66
2022/03/02 05:09:04;;;;;;;;;;;4.00;91.80;;;;;;5075512;28;19963;-64
2022/03/02 05:11:30;;;;;;;;;;;4.00;91.90;;;;;;5056141;28;20317;-67
2022/03/02 05:13:56;;;;;;;;;;;4.00;92.00;;;;;;5075170;28;20257;-69
2022/03/02 05:16:22;;;;;;;;;;;4.10;92.30;;;;;;5057730;28;19958;-68
2022/03/02 05:18:48;;;;;;;;;;;4.10;92.50;;;;;;5056875;28;20003;-65
2022/03/02 05:21:14;;;;;;;;;;;4.20;92.40;;;;;;5076017;28;19908;-72
2022/03/02 05:23:40;;;;;;;;;;;4.20;92.30;;;;;;5075508;28;19924;-66
2022/03/02 05:26:05;;;;;;;;;;;4.20;92.50;;;;;;5075510;28;20032;-70
2022/03/02 05:28:31;;;;;;;;;;;4.10;92.60;;;;;;5056802;28;19909;-65
2022/03/02 05:30:56;;;;;;;;;;;4.20;92.30;;;;;;5074631;28;19909;-65
2022/03/02 05:33:22;;;;;;;;;;;4.10;92.20;;;;;;5074506;28;20273;-66
2022/03/02 05:35:47;;;;;;;;;;;4.20;91.90;;;;;;5056865;28;19908;-66
2022/03/02 05:38:13;;;;;;;;;;;4.10;91.80;;;;;;5057310;28;19908;-69
2022/03/02 05:40:38;;;;;;;;;;;4.20;91.90;;;;;;5074659;28;19915;-66
2022/03/02 05:43:04;;;;;;;;;;;4.10;92.10;;;;;;5074489;28;19917;-66
2022/03/02 05:45:29;;;;;;;;;;;4.20;92.10;;;;;;5055275;28;19917;-69
2022/03/02 05:47:55;;;;;;;;;;;4.20;92.20;;;;;;5073628;28;19909;-70
2022/03/02 05:50:20;;;;;;;;;;;4.20;92.40;;;;;;5073761;28;20415;-66
2022/03/02 05:52:46;;;;;;;;;;;4.20;92.50;;;;;;5073013;28;19920;-68
2022/03/02 05:55:11;;;;;;;;;;;4.10;92.60;;;;;;5073546;28;19957;-65
2022/03/02 05:57:37;;;;;;;;;;;4.10;92.60;;;;;;5072992;28;19912;-68
2022/03/02 06:00:04;;;;;;;;;;;4.20;92.40;;;;;;5055956;28;20376;-68
2022/03/02 06:02:30;;;;;;;;;;;4.10;92.30;;;;;;5071692;28;19916;-66
2022/03/02 06:04:56;;;;;;;;;;;4.20;92.30;;;;;;5073935;28;20003;-65
2022/03/02 06:07:21;;;;;;;;;;;4.10;92.30;;;;;;5055804;28;20280;-67
2022/03/02 06:09:49;;;;;;;;;;;4.20;92.20;;;;;;5073096;28;19913;-66
2022/03/02 06:12:15;;;;;;;;;;;4.20;92.10;;;;;;5055417;28;20432;-66
2022/03/02 06:14:41;;;;;;;;;;;4.30;92.10;;;;;;5054687;28;19944;-66
2022/03/02 06:17:06;;;;;;;;;;;4.30;92.10;;;;;;5066981;28;19909;-68
2022/03/02 06:19:33;;;;;;;;;;;4.30;92.10;;;;;;5064241;28;19916;-66
2022/03/02 06:22:01;;;;;;;;;;;4.40;92.10;;;;;;5084278;28;20000;-66
2022/03/02 06:24:27;;;;;;;;;;;4.80;94.40;;;;;;5085304;28;20019;-71
2022/03/02 06:26:52;;;;;;;;;;;4.60;93.20;;;;;;5075193;28;19951;-67
2022/03/02 06:29:18;;;;;;;;;;;4.50;93.10;;;;;;5089311;28;20331;-66
2022/03/02 06:31:43;;;;;;;;;;;4.30;93.30;;;;;;5064010;28;20004;-69
2022/03/02 06:34:09;;;;;;;;;;;4.30;93.70;;;;;;5075449;28;19908;-66
2022/03/02 06:36:35;;;;;;;;;;;4.50;93.60;;;;;;5055748;28;19916;-66
2022/03/02 06:39:01;;;;;;;;;;;4.50;93.30;;;;;;5077740;28;20006;-68
2022/03/02 06:41:35;;;;;;;;;;;4.50;93.20;;;;;;5073737;28;20273;-67
2022/03/02 06:44:02;;;;;;;;;;;4.60;93.40;;;;;;5076057;28;19912;-66
2022/03/02 06:46:50;;;;;;;;;;;4.60;93.10;;;;;;5075951;28;20013;-67
2022/03/02 06:49:26;;;;;;;;;;;4.50;93.20;;;;;;5094658;28;19954;-66
2022/03/02 06:51:56;;;;;;;;;;;4.50;93.60;;;;;;5075779;28;20395;-66
2022/03/02 06:54:26;;;;;;;;;;;4.50;93.60;;;;;;5094327;28;19916;-71
2022/03/02 06:56:54;;;;;;;;;;;4.50;93.50;;;;;;5096152;28;20003;-66
2022/03/02 06:59:24;;;;;;;;;;;4.60;93.40;;;;;;5095404;28;19941;-67
2022/03/02 07:01:51;;;;;;;;;;;4.60;93.30;;;;;;5074968;28;19909;-67
2022/03/02 07:04:17;;;;;;;;;;;4.60;93.00;;;;;;5075157;28;19908;-66
2022/03/02 07:06:43;;;;;;;;;;;4.70;93.00;;;;;;5074620;28;20034;-68
2022/03/02 07:09:09;;;;;;;;;;;4.70;93.10;;;;;;5087822;28;19947;-68
2022/03/02 07:11:35;;;;;;;;;;;4.60;92.90;;;;;;5081809;28;20368;-67
2022/03/02 07:14:00;;;;;;;;;;;4.70;92.80;;;;;;5082863;28;20003;-67
2022/03/02 07:16:26;;;;;;;;;;;4.80;92.80;;;;;;5078657;28;19955;-68
2022/03/02 07:18:52;;;;;;;;;;;4.90;92.70;;;;;;5093342;28;19916;-69
2022/03/02 07:21:21;;;;;;;;;;;5.00;93.00;;;;;;5072584;28;19908;-67
2022/03/02 07:23:54;;;;;;;;;;;4.90;91.90;;;;;;5096495;28;19920;-68
2022/03/02 07:26:19;;;;;;;;;;;5.10;92.50;;;;;;5094618;28;20349;-67
2022/03/02 07:28:47;;;;;;;;;;;5.30;92.00;;;;;;5058661;28;19934;-68
2022/03/02 07:31:12;;;;;;;;;;;5.20;91.00;;;;;;5059490;28;19958;-68
2022/03/02 07:33:41;;;;;;;;;;;5.20;90.50;;;;;;5058726;28;19909;-68
2022/03/02 07:36:08;;;;;;;;;;;5.20;90.30;;;;;;5076520;28;20025;-66
2022/03/02 07:38:33;;;;;;;;;;;5.20;89.80;;;;;;5058074;28;19915;-71
2022/03/02 07:40:59;;;;;;;;;;;5.50;90.30;;;;;;5076650;28;19909;-69
2022/03/02 07:43:25;;;;;;;;;;;5.50;90.10;;;;;;5058481;28;19908;-67
2022/03/02 07:45:50;;;;;;;;;;;5.30;88.50;;;;;;5057755;28;19925;-65
2022/03/02 07:48:16;;;;;;;;;;;5.50;88.10;;;;;;5058636;28;19948;-66
2022/03/02 07:50:42;;;;;;;;;;;5.40;88.50;;;;;;5075736;28;19916;-65
2022/03/02 07:53:08;;;;;;;;;;;5.50;89.10;;;;;;5076074;28;20362;-65
2022/03/02 07:55:34;;;;;;;;;;;5.60;88.20;;;;;;5075937;28;19913;-70
2022/03/02 07:58:02;;;;;;;;;;;5.90;88.50;;;;;;5075793;28;19961;-66
2022/03/02 08:00:28;;;;;;;;;;;5.90;86.50;;;;;;5058269;28;19928;-66
2022/03/02 08:02:56;;;;;;;;;;;5.90;86.20;;;;;;5057953;28;19909;-67
2022/03/02 08:05:22;;;;;;;;;;;6.00;86.50;;;;;;5058393;28;20463;-70
2022/03/02 08:07:49;;;;;;;;;;;6.10;85.80;;;;;;5077558;28;19942;-67
2022/03/02 08:10:15;;;;;;;;;;;6.20;85.40;;;;;;5068813;28;19913;-65
2022/03/02 08:12:42;;;;;;;;;;;6.10;85.40;;;;;;5057527;28;19935;-65
2022/03/02 08:15:08;;;;;;;;;;;6.20;85.20;;;;;;5060399;28;19916;-71
2022/03/02 08:17:33;;;;;;;;;;;6.30;84.70;;;;;;5061268;28;19912;-65
2022/03/02 08:19:59;;;;;;;;;;;6.30;84.80;;;;;;5086779;28;19978;-70
2022/03/02 08:22:24;;;;;;;;;;;6.50;84.20;;;;;;5077528;28;20277;-66
2022/03/02 08:24:55;;;;;;;;;;;6.60;83.40;;;;;;5055554;28;19928;-65
2022/03/02 08:27:21;;;;;;;;;;;6.40;82.40;;;;;;5057548;28;19952;-67
2022/03/02 08:29:53;;;;;;;;;;;6.30;82.50;;;;;;5063397;28;20381;-67
2022/03/02 08:32:19;;;;;;;;;;;6.30;82.00;;;;;;5055043;28;19931;-66
2022/03/02 08:34:44;;;;;;;;;;;6.20;82.00;;;;;;5055032;28;20007;-67
2022/03/02 08:37:10;;;;;;;;;;;6.30;82.50;;;;;;5055321;28;19916;-66
2022/03/02 08:39:36;;;;;;;;;;;6.50;82.50;;;;;;5046935;28;19942;-67
2022/03/02 08:42:02;;;;;;;;;;;6.40;81.80;;;;;;5057797;28;19916;-68
2022/03/02 08:44:27;;;;;;;;;;;7.00;99.70;;;;;;5075779;28;19909;-65
2022/03/02 08:46:53;;;;;;;;;;;8.60;99.90;;;;;;5057155;28;20258;-64
2022/03/02 08:49:19;;;;;;;;;;;8.70;99.90;;;;;;5045764;28;20200;-66
2022/03/02 08:51:45;;;;;;;;;;;9.30;90.50;;;;;;5056891;28;20273;-71
2022/03/02 08:54:14;;;;;;;;;;;8.30;87.10;;;;;;5066499;28;20409;-67
2022/03/02 08:56:41;;;;;;;;;;;7.80;84.90;;;;;;5040260;28;19916;-66
2022/03/02 08:59:08;;;;;;;;;;;7.30;85.20;;;;;;5039579;28;19995;-67
2022/03/02 09:01:37;;;;;;;;;;;7.20;86.30;;;;;;5064456;28;20384;-66
2022/03/02 09:04:02;;;;;;;;;;;7.10;87.10;;;;;;5065465;28;20081;-68
2022/03/02 09:06:28;;;;;;;;;;;6.90;87.00;;;;;;5051149;28;20019;-67
2022/03/02 09:08:56;;;;;;;;;;;6.70;87.90;;;;;;5074262;28;20403;-68
2022/03/02 09:11:22;;;;;;;;;;;6.60;88.00;;;;;;5076622;28;19954;-68
2022/03/02 09:13:51;;;;;;;;;;;6.40;87.70;;;;;;5074139;28;19908;-66
2022/03/02 09:16:17;;;;;;;;;;;6.30;88.30;;;;;;5065206;28;20384;-67
2022/03/02 09:18:44;;;;;;;;;;;6.30;88.40;;;;;;5054376;28;19909;-68
2022/03/02 09:21:09;;;;;;;;;;;6.50;87.50;;;;;;5045322;28;19913;-73
2022/03/02 09:23:40;;;;;;;;;;;6.50;88.10;;;;;;5042652;28;20382;-66
2022/03/02 09:26:13;;;;;;;;;;;6.60;87.80;;;;;;5054962;28;19925;-70
2022/03/02 09:28:40;;;;;;;;;;;6.60;86.90;;;;;;5053518;28;19909;-66
2022/03/02 09:31:09;;;;;;;;;;;6.50;87.50;;;;;;5070878;28;19909;-70
2022/03/02 09:33:35;;;;;;;;;;;6.50;87.10;;;;;;5072708;28;19999;-65
2022/03/02 09:36:02;;;;;;;;;;;6.60;86.90;;;;;;5074289;28;19990;-65
2022/03/02 09:38:32;;;;;;;;;;;6.60;86.10;;;;;;5075268;28;20374;-65
2022/03/02 09:41:05;;;;;;;;;;;6.70;85.10;;;;;;5064982;28;19913;-66
2022/03/02 09:43:31;;;;;;;;;;;6.70;84.70;;;;;;5052868;28;19908;-66
2022/03/02 09:45:58;;;;;;;;;;;6.80;85.00;;;;;;5052777;28;19956;-67
2022/03/02 09:48:30;;;;;;;;;;;6.70;85.60;;;;;;5053370;28;20361;-67
2022/03/02 09:51:00;;;;;;;;;;;7.00;84.90;;;;;;5053073;28;19920;-64
2022/03/02 09:53:28;;;;;;;;;;;8.20;97.10;;;;;;5052714;28;19913;-65
2022/03/02 09:55:54;;;;;;;;;;;8.40;91.50;;;;;;5052108;28;19920;-65
2022/03/02 09:58:20;;;;;;;;;;;8.60;89.70;;;;;;5053932;28;19908;-65
2022/03/02 10:00:47;;;;;;;;;;;8.80;86.20;;;;;;5051959;28;20239;-67
2022/03/02 10:03:17;;;;;;;;;;;8.80;81.50;;;;;;5060609;28;19913;-72
2022/03/02 10:05:45;;;;;;;;;;;8.60;79.30;;;;;;5067914;28;19921;-68
2022/03/02 10:08:10;;;;;;;;;;;8.10;79.40;;;;;;5067414;28;19920;-66
2022/03/02 10:10:37;;;;;;;;;;;7.90;79.60;;;;;;5069582;28;19913;-65
2022/03/02 10:13:05;;;;;;;;;;;7.90;79.50;;;;;;5068790;28;19981;-69
2022/03/02 10:15:31;;;;;;;;;;;7.90;79.40;;;;;;5067592;28;19913;-65
2022/03/02 10:17:57;;;;;;;;;;;7.80;78.90;;;;;;5066789;28;19919;-66
2022/03/02 10:20:24;;;;;;;;;;;7.20;78.80;;;;;;5067715;28;19909;-66
2022/03/02 10:22:57;;;;;;;;;;;7.30;79.20;;;;;;5073408;28;19926;-67
2022/03/02 10:25:42;;;;;;;;;;;7.40;79.00;;;;;;5094345;28;20337;-65
2022/03/02 10:28:07;;;;;;;;;;;7.40;78.90;;;;;;5075316;28;19908;-67
2022/03/02 10:30:36;;;;;;;;;;;7.50;79.00;;;;;;5093423;28;19995;-65
2022/03/02 10:33:21;;;;;;;;;;;7.60;78.80;;;;;;5093153;28;19931;-67
2022/03/02 10:36:13;;;;;;;;;;;7.60;79.50;;;;;;5093423;28;19915;-71
2022/03/02 10:38:39;;;;;;;;;;;7.50;79.60;;;;;;5090181;28;19909;-66
2022/03/02 10:41:07;;;;;;;;;;;7.60;79.80;;;;;;5076273;28;20308;-68
2022/03/02 10:43:40;;;;;;;;;;;7.70;79.20;;;;;;5093311;28;19908;-66
2022/03/02 10:46:08;;;;;;;;;;;7.90;79.10;;;;;;5092806;28;19923;-63
2022/03/02 10:48:42;;;;;;;;;;;8.00;78.60;;;;;;5058008;28;19962;-65
2022/03/02 10:51:10;;;;;;;;;;;8.10;78.90;;;;;;5092794;28;20391;-66
2022/03/02 10:53:37;;;;;;;;;;;8.30;78.50;;;;;;5092782;28;19955;-63
2022/03/02 10:56:04;;;;;;;;;;;8.30;78.50;;;;;;5092717;28;20369;-68
2022/03/02 10:58:30;;;;;;;;;;;8.40;77.90;;;;;;5093908;28;19908;-65
2022/03/02 11:00:58;;;;;;;;;;;8.40;77.80;;;;;;5077045;28;19987;-73
2022/03/02 11:03:26;;;;;;;;;;;8.80;77.60;;;;;;5094843;28;19914;-67
2022/03/02 11:05:52;;;;;;;;;;;9.20;76.30;;;;;;5094436;28;19917;-67
2022/03/02 11:08:18;;;;;;;;;;;9.30;75.30;;;;;;5077111;28;19915;-67
2022/03/02 11:10:45;;;;;;;;;;;9.80;74.70;;;;;;5093988;28;19908;-66
2022/03/02 11:13:15;;;;;;;;;;;10.20;73.20;;;;;;5075392;28;19973;-68
2022/03/02 11:15:43;;;;;;;;;;;11.00;73.00;;;;;;5094343;28;19912;-68
2022/03/02 11:18:09;;;;;;;;;;;12.30;71.30;;;;;;5093461;28;19927;-64
2022/03/02 11:20:35;;;;;;;;;;;;;;;;;;5093965;28;19931;-66
2022/03/02 11:23:02;;;;;;;;;;;13.90;65.80;;;;;;5091131;28;20155;-67
2022/03/02 11:25:40;;;;;;;;;;;14.30;61.80;;;;;;5091603;28;19920;-66
2022/03/02 11:28:06;;;;;;;;;;;14.90;61.80;;;;;;5072119;28;19916;-66
2022/03/02 11:30:31;;;;;;;;;;;15.30;59.80;;;;;;5072377;28;19931;-65
2022/03/02 11:33:05;;;;;;;;;;;15.00;59.90;;;;;;5072429;28;20365;-66
2022/03/02 11:35:35;;;;;;;;;;;15.50;57.70;;;;;;5091133;28;19961;-66
2022/03/02 11:38:01;;;;;;;;;;;15.90;56.90;;;;;;5071639;28;20392;-64
2022/03/02 11:40:39;;;;;;;;;;;16.20;56.80;;;;;;5072682;28;19908;-66
2022/03/02 11:43:12;;;;;;;;;;;16.00;57.70;;;;;;5090345;28;19912;-65
2022/03/02 11:45:38;;;;;;;;;;;15.70;55.40;;;;;;5072896;28;20375;-65
2022/03/02 11:48:08;;;;;;;;;;;16.50;55.00;;;;;;5071991;28;20038;-65
2022/03/02 11:50:34;;;;;;;;;;;16.90;53.80;;;;;;5072320;28;19915;-66
2022/03/02 11:53:06;;;;;;;;;;;16.60;53.90;;;;;;5071644;28;20337;-66
2022/03/02 11:55:33;;;;;;;;;;;16.80;53.60;;;;;;5072737;28;19923;-65
2022/03/02 11:58:00;;;;;;;;;;;17.30;52.70;;;;;;5090178;28;19920;-66
2022/03/02 12:00:27;;;;;;;;;;;17.00;52.10;;;;;;5091777;28;20023;-65
2022/03/02 12:02:54;;;;;;;;;;;17.30;51.90;;;;;;5075368;28;19910;-66
2022/03/02 12:05:24;;;;;;;;;;;17.70;51.40;;;;;;5094230;28;19969;-66
2022/03/02 12:07:52;;;;;;;;;;;17.40;50.00;;;;;;5075748;28;19912;-67
2022/03/02 12:10:20;;;;;;;;;;;17.70;49.30;;;;;;5094433;28;20007;-66
2022/03/02 12:12:46;;;;;;;;;;;16.70;49.70;;;;;;5094177;28;20438;-67
2022/03/02 12:15:11;;;;;;;;;;;16.80;50.70;;;;;;5093419;28;19916;-66
2022/03/02 12:17:37;;;;;;;;;;;17.30;50.00;;;;;;5075987;28;20345;-66
2022/03/02 12:20:06;;;;;;;;;;;17.80;48.40;;;;;;5075013;28;19908;-67
2022/03/02 12:22:33;;;;;;;;;;;18.10;46.80;;;;;;5093670;28;19938;-66
2022/03/02 12:24:58;;;;;;;;;;;16.40;47.40;;;;;;5093002;28;19986;-68
2022/03/02 12:27:24;;;;;;;;;;;16.10;48.00;;;;;;5075424;28;20015;-67
2022/03/02 12:30:05;;;;;;;;;;;16.10;48.30;;;;;;5075381;28;19908;-67
2022/03/02 12:32:35;;;;;;;;;;;16.80;48.30;;;;;;5075305;28;20329;-65
2022/03/02 12:35:02;;;;;;;;;;;17.00;47.70;;;;;;5093000;28;19908;-67
2022/03/02 12:37:29;;;;;;;;;;;15.90;47.90;;;;;;5093774;28;19934;-66
2022/03/02 12:39:55;;;;;;;;;;;16.70;47.80;;;;;;5092810;28;19909;-66
2022/03/02 12:42:20;;;;;;;;;;;16.60;47.30;;;;;;5075323;28;19912;-65
2022/03/02 12:44:47;;;;;;;;;;;16.20;47.70;;;;;;5093518;28;19916;-66
2022/03/02 12:47:18;;;;;;;;;;;16.70;48.10;;;;;;5074853;28;19973;-66
2022/03/02 12:49:45;;;;;;;;;;;17.60;47.70;;;;;;5093404;28;19915;-66
2022/03/02 12:52:11;;;;;;;;;;;17.70;46.60;;;;;;5074057;28;20365;-66
2022/03/02 12:54:38;;;;;;;;;;;18.20;46.10;;;;;;5093144;28;19994;-67
2022/03/02 12:57:05;;;;;;;;;;;17.50;45.90;;;;;;5092544;28;19920;-65
2022/03/02 12:59:30;;;;;;;;;;;16.90;45.80;;;;;;5092731;28;19938;-67
2022/03/02 13:01:57;;;;;;;;;;;15.90;47.00;;;;;;5074090;28;19908;-65
2022/03/02 13:04:26;;;;;;;;;;;16.00;47.00;;;;;;5074685;28;20319;-66
2022/03/02 13:06:59;;;;;;;;;;;15.90;47.50;;;;;;5074688;28;19935;-66
2022/03/02 13:09:28;;;;;;;;;;;16.40;46.70;;;;;;5074328;28;19930;-66
2022/03/02 13:11:54;;;;;;;;;;;15.30;48.00;;;;;;5092471;28;20338;-70
2022/03/02 13:14:33;;;;;;;;;;;16.10;47.60;;;;;;5074633;28;19934;-66
2022/03/02 13:17:15;;;;;;;;;;;15.10;47.10;;;;;;5092064;28;19919;-67
2022/03/02 13:19:45;;;;;;;;;;;15.90;48.00;;;;;;5092356;28;19992;-67
2022/03/02 13:22:15;;;;;;;;;;;16.60;46.40;;;;;;5068567;28;19912;-65
2022/03/02 13:24:45;;;;;;;;;;;17.00;46.50;;;;;;5071672;28;19932;-66
2022/03/02 13:27:12;;;;;;;;;;;17.10;46.50;;;;;;5067296;28;20344;-66
2022/03/02 13:29:49;;;;;;;;;;;17.40;45.20;;;;;;5081150;28;19912;-66
2022/03/02 13:32:15;;;;;;;;;;;16.50;46.10;;;;;;5071230;28;20282;-67
2022/03/02 13:35:00;;;;;;;;;;;16.70;45.40;;;;;;5053984;28;19912;-66
2022/03/02 13:37:46;;;;;;;;;;;17.20;46.20;;;;;;5091153;28;19923;-67
2022/03/02 13:40:31;;;;;;;;;;;16.90;45.20;;;;;;5072808;28;19923;-67
2022/03/02 13:43:06;;;;;;;;;;;16.60;45.10;;;;;;5079194;28;19912;-67
2022/03/02 13:45:33;;;;;;;;;;;17.00;44.70;;;;;;5053155;28;19913;-65
2022/03/02 13:48:16;;;;;;;;;;;16.90;44.30;;;;;;5078587;28;19912;-68
2022/03/02 13:51:01;;;;;;;;;;;16.20;44.90;;;;;;5082515;28;19912;-66
2022/03/02 13:53:34;;;;;;;;;;;15.10;46.70;;;;;;5052976;28;19913;-66
2022/03/02 13:56:11;;;;;;;;;;;15.90;46.90;;;;;;5070750;28;20009;-67
2022/03/02 13:58:37;;;;;;;;;;;16.30;47.00;;;;;;5073774;28;20328;-67
2022/03/02 14:01:11;;;;;;;;;;;15.70;45.80;;;;;;5070589;28;20277;-68
2022/03/02 14:03:43;;;;;;;;;;;16.60;45.80;;;;;;5081367;28;19916;-66
2022/03/02 14:06:14;;;;;;;;;;;15.80;46.10;;;;;;5052013;28;20419;-67
2022/03/02 14:08:46;;;;;;;;;;;15.70;46.10;;;;;;5065205;28;19912;-68
2022/03/02 14:11:30;;;;;;;;;;;15.00;46.30;;;;;;5070343;28;19912;-64
2022/03/02 14:13:58;;;;;;;;;;;15.10;51.30;;;;;;5058796;28;19943;-65
2022/03/02 14:16:25;;;;;;;;;;;16.10;47.80;;;;;;5065611;28;19908;-65
2022/03/02 14:19:03;;;;;;;;;;;16.70;47.00;;;;;;5081289;28;20003;-65
2022/03/02 14:21:29;;;;;;;;;;;16.30;49.10;;;;;;5056842;28;19912;-66
2022/03/02 14:23:54;;;;;;;;;;;16.10;46.40;;;;;;5077304;28;19931;-67
2022/03/02 14:26:20;;;;;;;;;;;15.90;47.70;;;;;;5072096;28;19976;-65
2022/03/02 14:28:47;;;;;;;;;;;16.30;46.60;;;;;;5090955;28;19912;-65
2022/03/02 14:31:13;;;;;;;;;;;16.30;48.50;;;;;;5069930;28;20302;-67
2022/03/02 14:33:39;;;;;;;;;;;16.90;46.00;;;;;;5072981;28;19915;-67